createdAt,value
2018-07-28T00:02:05.433Z,26.70
2018-07-28T00:04:12.797Z,26.70
2018-07-28T00:06:19.285Z,26.60
2018-07-28T00:08:27.552Z,26.60
2018-07-28T00:10:37.799Z,26.60
2018-07-28T00:12:44.695Z,26.60
2018-07-28T00:14:51.305Z,26.50
2018-07-28T00:17:07.629Z,26.50
2018-07-28T00:19:24.395Z,26.50
2018-07-28T00:24:31.453Z,26.50
2018-07-28T00:26:43.014Z,26.50
2018-07-28T00:28:50.546Z,26.60
2018-07-28T00:30:57.354Z,26.70
2018-07-28T00:33:05.654Z,26.70
2018-07-28T00:35:12.605Z,26.70
2018-07-28T00:37:18.455Z,26.50
2018-07-28T00:39:27.646Z,26.40
2018-07-28T00:41:35.237Z,26.30
2018-07-28T00:45:47.844Z,26.40
2018-07-28T00:48:06.550Z,26.40
2018-07-28T00:50:13.443Z,26.40
2018-07-28T00:52:24.615Z,26.20
2018-07-28T00:54:34.488Z,26.20
2018-07-28T00:56:48.733Z,26.00
2018-07-28T01:01:03.774Z,25.80
2018-07-28T01:03:11.497Z,25.70
2018-07-28T01:05:18.394Z,25.70
2018-07-28T01:07:25.346Z,25.80
2018-07-28T01:09:48.264Z,25.80
2018-07-28T01:12:00.757Z,25.80
2018-07-28T01:14:06.644Z,25.90
2018-07-28T01:16:10.931Z,25.80
2018-07-28T01:18:15.211Z,25.80
2018-07-28T01:20:19.872Z,25.70
2018-07-28T01:22:23.999Z,25.60
2018-07-28T01:24:28.077Z,25.60
2018-07-28T01:26:33.565Z,25.60
2018-07-28T01:30:41.319Z,25.60
2018-07-28T01:32:50.873Z,25.60
2018-07-28T01:34:56.725Z,25.50
2018-07-28T01:37:00.961Z,25.40
2018-07-28T01:39:08.963Z,25.40
2018-07-28T01:41:14.094Z,25.30
2018-07-28T01:43:18.629Z,25.20
2018-07-28T01:45:25.529Z,25.30
2018-07-28T01:47:29.854Z,25.40
2018-07-28T01:49:35.045Z,25.30
2018-07-28T01:51:44.369Z,25.30
2018-07-28T01:53:49.456Z,25.40
2018-07-28T01:55:54.512Z,25.50
2018-07-28T01:57:59.828Z,25.60
2018-07-28T02:00:06.713Z,25.60
2018-07-28T02:02:10.819Z,25.50
2018-07-28T02:04:16.267Z,25.40
2018-07-28T02:06:20.402Z,25.40
2018-07-28T02:08:24.440Z,25.50
2018-07-28T02:10:28.568Z,25.50
2018-07-28T02:12:33.119Z,25.40
2018-07-28T02:14:37.190Z,25.30
2018-07-28T02:16:41.659Z,25.30
2018-07-28T02:18:46.161Z,25.30
2018-07-28T02:20:51.019Z,25.30
2018-07-28T02:22:55.473Z,25.30
2018-07-28T02:24:59.559Z,25.30
2018-07-28T02:27:03.711Z,25.20
2018-07-28T02:29:11.024Z,25.10
2018-07-28T02:31:15.506Z,25.10
2018-07-28T02:33:19.792Z,25.10
2018-07-28T02:35:24.774Z,25.00
2018-07-28T02:37:28.923Z,24.90
2018-07-28T02:39:33.371Z,24.80
2018-07-28T02:41:41.978Z,24.70
2018-07-28T02:43:45.964Z,24.60
2018-07-28T02:45:50.048Z,24.60
2018-07-28T02:47:54.391Z,24.60
2018-07-28T02:49:59.449Z,24.50
2018-07-28T02:52:03.538Z,24.40
2018-07-28T02:54:08.713Z,24.40
2018-07-28T02:56:13.825Z,24.50
2018-07-28T02:58:18.563Z,24.40
2018-07-28T03:00:22.640Z,24.20
2018-07-28T03:02:27.515Z,24.20
2018-07-28T03:04:34.619Z,24.30
2018-07-28T03:06:38.653Z,24.40
2018-07-28T03:08:42.939Z,24.60
2018-07-28T03:10:47.012Z,24.70
2018-07-28T03:12:51.356Z,24.50
2018-07-28T03:14:55.294Z,24.40
2018-07-28T03:16:59.350Z,24.30
2018-07-28T03:19:07.324Z,24.30
2018-07-28T03:21:14.403Z,24.30
2018-07-28T03:23:18.380Z,24.30
2018-07-28T03:25:28.168Z,24.30
2018-07-28T03:27:32.804Z,24.30
2018-07-28T03:31:44.086Z,24.10
2018-07-28T03:33:50.596Z,24.30
2018-07-28T03:35:55.043Z,24.30
2018-07-28T03:37:59.849Z,24.20
2018-07-28T03:40:04.787Z,24.20
2018-07-28T03:42:09.599Z,24.20
2018-07-28T03:44:13.743Z,24.20
2018-07-28T03:46:17.805Z,24.30
2018-07-28T03:48:22.259Z,24.30
2018-07-28T03:50:26.810Z,24.50
2018-07-28T03:52:31.274Z,24.30
2018-07-28T03:54:35.694Z,24.30
2018-07-28T03:56:39.921Z,24.40
2018-07-28T04:00:48.814Z,24.10
2018-07-28T04:02:54.009Z,24.00
2018-07-28T04:05:02.489Z,23.80
2018-07-28T04:07:09.260Z,23.90
2018-07-28T04:09:14.238Z,24.00
2018-07-28T04:11:18.656Z,24.10
2018-07-28T04:13:28.422Z,24.20
2018-07-28T04:15:34.327Z,24.10
2018-07-28T04:17:44.751Z,24.20
2018-07-28T04:19:50.625Z,24.20
2018-07-28T04:21:56.308Z,24.20
2018-07-28T04:24:01.952Z,24.20
2018-07-28T04:26:06.057Z,24.30
2018-07-28T04:28:10.206Z,24.70
2018-07-28T04:30:15.848Z,25.00
2018-07-28T04:32:19.909Z,25.30
2018-07-28T04:34:24.593Z,25.60
2018-07-28T04:36:30.201Z,25.70
2018-07-28T04:38:34.301Z,25.80
2018-07-28T04:40:38.342Z,26.00
2018-07-28T04:42:43.637Z,26.00
2018-07-28T04:44:47.632Z,26.10
2018-07-28T04:46:51.643Z,25.90
2018-07-28T04:48:55.976Z,25.80
2018-07-28T04:51:00.871Z,25.40
2018-07-28T04:53:04.983Z,25.70
2018-07-28T04:55:11.511Z,26.10
2018-07-28T04:57:15.739Z,26.40
2018-07-28T04:59:19.867Z,26.30
2018-07-28T05:01:23.874Z,26.10
2018-07-28T05:03:29.453Z,25.60
2018-07-28T05:05:33.675Z,25.30
2018-07-28T05:07:39.841Z,25.70
2018-07-28T05:09:44.682Z,25.80
2018-07-28T05:11:48.738Z,26.00
2018-07-28T05:13:54.073Z,26.10
2018-07-28T05:15:58.175Z,26.20
2018-07-28T05:18:02.306Z,26.40
2018-07-28T05:20:08.057Z,26.80
2018-07-28T05:22:12.106Z,27.10
2018-07-28T05:24:16.172Z,27.40
2018-07-28T05:26:20.249Z,27.60
2018-07-28T05:28:24.708Z,27.60
2018-07-28T05:30:28.757Z,27.90
2018-07-28T05:32:32.804Z,28.20
2018-07-28T05:34:37.076Z,28.40
2018-07-28T05:36:41.120Z,28.50
2018-07-28T05:38:46.023Z,28.60
2018-07-28T05:40:53.480Z,28.80
2018-07-28T05:42:57.744Z,28.90
2018-07-28T05:45:03.165Z,29.10
2018-07-28T05:47:07.398Z,29.40
2018-07-28T05:49:11.399Z,29.50
2018-07-28T05:51:15.436Z,29.50
2018-07-28T05:53:20.920Z,29.70
2018-07-28T05:55:25.279Z,29.80
2018-07-28T05:57:30.252Z,30.00
2018-07-28T05:59:34.612Z,30.00
2018-07-28T06:01:38.687Z,30.10
2018-07-28T06:03:43.028Z,30.20
2018-07-28T06:05:47.308Z,30.10
2018-07-28T06:07:51.974Z,30.20
2018-07-28T06:09:56.073Z,30.20
2018-07-28T06:12:03.684Z,30.00
2018-07-28T06:14:07.819Z,29.90
2018-07-28T06:16:11.962Z,30.00
2018-07-28T06:18:16.405Z,30.20
2018-07-28T06:20:20.585Z,30.50
2018-07-28T06:22:25.371Z,30.20
2018-07-28T06:24:29.967Z,30.50
2018-07-28T06:26:34.067Z,30.80
2018-07-28T06:28:38.061Z,30.70
2018-07-28T06:30:42.512Z,30.50
2018-07-28T06:32:47.380Z,30.40
2018-07-28T06:34:51.486Z,30.50
2018-07-28T06:36:55.701Z,30.10
2018-07-28T06:39:00.769Z,30.10
2018-07-28T06:41:04.857Z,30.00
2018-07-28T06:43:09.359Z,30.10
2018-07-28T06:45:14.699Z,30.40
2018-07-28T06:47:19.802Z,30.50
2018-07-28T06:49:25.433Z,31.00
2018-07-28T06:51:31.254Z,31.30
2018-07-28T06:53:35.522Z,31.70
2018-07-28T06:55:40.536Z,31.90
2018-07-28T06:57:45.411Z,32.00
2018-07-28T06:59:49.548Z,32.30
2018-07-28T07:01:53.987Z,32.60
2018-07-28T07:03:58.142Z,32.90
2018-07-28T07:06:03.185Z,33.10
2018-07-28T07:08:08.175Z,33.20
2018-07-28T07:10:13.352Z,33.20
2018-07-28T07:12:17.363Z,33.00
2018-07-28T07:14:22.297Z,32.80
2018-07-28T07:16:29.306Z,32.50
2018-07-28T07:18:34.817Z,32.30
2018-07-28T07:20:39.261Z,32.20
2018-07-28T07:24:47.754Z,31.90
2018-07-28T07:26:52.357Z,31.70
2018-07-28T07:28:57.046Z,31.60
2018-07-28T07:31:01.300Z,31.40
2018-07-28T07:33:06.349Z,31.30
2018-07-28T07:35:10.340Z,31.10
2018-07-28T07:37:16.356Z,30.90
2018-07-28T07:39:21.725Z,31.00
2018-07-28T07:41:25.779Z,30.90
2018-07-28T07:43:30.460Z,30.90
2018-07-28T07:45:35.120Z,31.00
2018-07-28T07:47:39.348Z,30.90
2018-07-28T07:49:43.771Z,30.90
2018-07-28T07:53:54.260Z,31.00
2018-07-28T07:56:02.044Z,31.00
2018-07-28T07:58:06.179Z,31.00
2018-07-28T08:00:10.705Z,30.90
2018-07-28T08:02:15.562Z,30.80
2018-07-28T08:04:21.859Z,30.60
2018-07-28T08:06:26.068Z,30.50
2018-07-28T08:08:32.661Z,30.50
2018-07-28T08:10:40.085Z,30.60
2018-07-28T08:12:45.874Z,30.70
2018-07-28T08:14:51.185Z,31.00
2018-07-28T08:16:56.492Z,31.40
2018-07-28T08:19:01.521Z,31.60
2018-07-28T08:21:05.660Z,31.70
2018-07-28T08:23:09.656Z,31.60
2018-07-28T08:25:14.767Z,31.70
2018-07-28T08:27:18.856Z,31.60
2018-07-28T08:29:25.976Z,31.70
2018-07-28T08:31:30.088Z,31.60
2018-07-28T08:33:35.707Z,31.70
2018-07-28T08:35:40.291Z,31.70
2018-07-28T08:37:44.382Z,31.70
2018-07-28T08:39:48.551Z,31.70
2018-07-28T08:41:53.385Z,31.60
2018-07-28T08:43:58.952Z,31.60
2018-07-28T08:46:05.078Z,31.50
2018-07-28T08:48:10.355Z,31.30
2018-07-28T08:50:15.565Z,30.80
2018-07-28T08:52:20.800Z,30.30
2018-07-28T08:56:32.741Z,29.50
2018-07-28T08:58:38.365Z,29.20
2018-07-28T09:00:42.942Z,29.10
2018-07-28T09:02:48.678Z,28.90
2018-07-28T09:04:53.639Z,29.00
2018-07-28T09:06:58.394Z,29.00
2018-07-28T09:09:03.578Z,29.10
2018-07-28T09:11:08.301Z,29.10
2018-07-28T09:13:15.533Z,29.20
2018-07-28T09:15:25.602Z,29.40
2018-07-28T09:17:29.756Z,29.40
2018-07-28T09:19:34.468Z,29.40
2018-07-28T09:21:39.714Z,29.50
2018-07-28T09:23:46.313Z,29.50
2018-07-28T09:25:51.363Z,29.60
2018-07-28T09:27:56.543Z,29.80
2018-07-28T09:30:00.900Z,29.90
2018-07-28T09:32:07.478Z,29.90
2018-07-28T09:34:12.887Z,29.90
2018-07-28T09:36:17.197Z,29.90
2018-07-28T09:38:21.443Z,29.90
2018-07-28T09:40:25.645Z,30.00
2018-07-28T09:42:30.680Z,30.20
2018-07-28T09:44:39.626Z,30.50
2018-07-28T09:46:43.774Z,30.80
2018-07-28T09:48:49.177Z,31.10
2018-07-28T09:50:55.379Z,31.30
2018-07-28T09:52:59.526Z,31.50
2018-07-28T09:55:04.008Z,31.60
2018-07-28T09:57:10.140Z,31.70
2018-07-28T09:59:14.370Z,31.90
2018-07-28T10:01:23.653Z,32.10
2018-07-28T10:03:30.798Z,32.20
2018-07-28T10:05:34.953Z,32.40
2018-07-28T10:07:39.100Z,32.70
2018-07-28T10:09:45.102Z,32.80
2018-07-28T10:11:49.269Z,32.90
2018-07-28T10:13:54.393Z,33.20
2018-07-28T10:16:01.367Z,33.40
2018-07-28T10:18:06.080Z,33.90
2018-07-28T10:22:21.393Z,34.50
2018-07-28T10:24:27.281Z,34.50
2018-07-28T10:26:32.879Z,34.50
2018-07-28T10:28:38.670Z,34.60
2018-07-28T10:32:48.010Z,34.90
2018-07-28T10:34:57.635Z,35.00
2018-07-28T10:37:03.215Z,35.10
2018-07-28T10:39:12.986Z,35.20
2018-07-28T10:43:25.011Z,35.90
2018-07-28T10:45:32.432Z,36.00
2018-07-28T10:47:38.299Z,35.80
2018-07-28T10:49:44.354Z,35.80
2018-07-28T10:51:51.257Z,35.90
2018-07-28T10:53:56.993Z,36.00
2018-07-28T10:56:03.072Z,36.10
2018-07-28T10:58:19.639Z,36.30
2018-07-28T11:00:31.999Z,36.10
2018-07-28T11:02:41.435Z,35.80
2018-07-28T11:04:45.787Z,35.80
2018-07-28T11:06:56.507Z,35.80
2018-07-28T11:09:06.327Z,35.90
2018-07-28T11:11:11.483Z,36.30
2018-07-28T11:15:25.270Z,36.70
2018-07-28T11:17:30.739Z,37.00
2018-07-28T11:19:36.337Z,37.20
2018-07-28T11:21:44.928Z,37.40
2018-07-28T11:23:55.981Z,37.50
2018-07-28T11:26:09.839Z,37.60
2018-07-28T11:28:16.551Z,37.60
2018-07-28T11:30:20.665Z,37.30
2018-07-28T11:32:36.007Z,37.10
2018-07-28T11:34:51.280Z,37.00
2018-07-28T11:37:06.870Z,36.90
2018-07-28T11:39:21.774Z,36.90
2018-07-28T11:41:37.215Z,36.80
2018-07-28T11:43:54.784Z,36.50
2018-07-28T11:48:04.891Z,36.60
2018-07-28T11:50:09.467Z,36.60
2018-07-28T11:52:22.628Z,36.80
2018-07-28T11:54:42.705Z,37.00
2018-07-28T11:56:46.770Z,36.90
2018-07-28T11:58:51.891Z,36.50
2018-07-28T12:00:57.063Z,36.20
2018-07-28T12:03:01.677Z,36.10
2018-07-28T12:05:08.066Z,35.90
2018-07-28T12:07:12.213Z,35.80
2018-07-28T12:09:16.933Z,36.00
2018-07-28T12:11:26.139Z,35.90
2018-07-28T12:13:30.560Z,36.00
2018-07-28T12:15:40.827Z,36.20
2018-07-28T12:17:47.922Z,36.30
2018-07-28T12:22:12.919Z,36.40
2018-07-28T12:24:18.742Z,36.70
2018-07-28T12:26:23.262Z,36.50
2018-07-28T12:28:28.442Z,36.60
2018-07-28T12:30:34.372Z,36.70
2018-07-28T12:32:42.893Z,36.30
2018-07-28T12:34:53.708Z,35.90
2018-07-28T12:37:00.023Z,35.40
2018-07-28T12:39:04.436Z,35.10
2018-07-28T12:41:12.282Z,34.70
2018-07-28T12:43:17.314Z,34.60
2018-07-28T12:45:22.310Z,34.50
2018-07-28T12:47:26.957Z,34.30
2018-07-28T12:49:31.862Z,34.10
2018-07-28T12:51:37.908Z,34.00
2018-07-28T12:53:42.416Z,33.90
2018-07-28T12:55:49.946Z,33.90
2018-07-28T12:57:55.879Z,34.10
2018-07-28T13:00:03.013Z,34.00
2018-07-28T13:02:08.443Z,34.10
2018-07-28T13:04:13.903Z,34.10
2018-07-28T13:06:19.424Z,34.00
2018-07-28T13:08:27.289Z,34.20
2018-07-28T13:10:32.290Z,34.20
2018-07-28T13:12:38.329Z,34.10
2018-07-28T13:14:43.379Z,34.10
2018-07-28T13:16:47.724Z,34.10
2018-07-28T13:18:55.466Z,34.10
2018-07-28T13:21:05.824Z,34.10
2018-07-28T13:23:13.300Z,34.10
2018-07-28T13:25:17.983Z,34.20
2018-07-28T13:27:22.429Z,34.40
2018-07-28T13:29:28.490Z,34.60
2018-07-28T13:31:34.579Z,34.50
2018-07-28T13:33:40.577Z,34.50
2018-07-28T13:35:53.270Z,34.50
2018-07-28T13:37:59.002Z,34.40
2018-07-28T13:40:04.315Z,34.40
2018-07-28T13:42:08.581Z,33.90
2018-07-28T13:44:26.145Z,32.90
2018-07-28T13:48:44.357Z,28.60
2018-07-28T13:50:52.124Z,27.00
2018-07-28T13:55:25.433Z,26.00
2018-07-28T13:57:32.711Z,26.20
2018-07-28T13:59:39.034Z,26.20
2018-07-28T14:01:45.454Z,26.20
2018-07-28T14:03:51.046Z,26.40
2018-07-28T14:05:55.280Z,27.00
2018-07-28T14:07:59.917Z,27.80
2018-07-28T14:10:04.546Z,28.20
2018-07-28T14:12:08.704Z,28.30
2018-07-28T14:14:14.113Z,28.40
2018-07-28T14:16:25.084Z,28.60
2018-07-28T14:20:45.114Z,29.10
2018-07-28T14:22:49.575Z,29.40
2018-07-28T14:24:54.510Z,29.80
2018-07-28T14:27:00.345Z,30.10
2018-07-28T14:29:04.726Z,30.40
2018-07-28T14:31:09.293Z,30.60
2018-07-28T14:33:14.003Z,30.70
2018-07-28T14:35:21.185Z,30.70
2018-07-28T14:37:28.372Z,30.80
2018-07-28T14:41:41.387Z,30.90
2018-07-28T14:43:45.777Z,31.20
2018-07-28T14:45:52.632Z,31.70
2018-07-28T14:47:57.245Z,32.30
2018-07-28T14:50:02.967Z,32.70
2018-07-28T14:52:07.017Z,32.80
2018-07-28T14:54:11.458Z,32.90
2018-07-28T14:56:15.626Z,32.90
2018-07-28T14:58:20.128Z,33.00
2018-07-28T15:00:25.116Z,33.30
2018-07-28T15:02:31.046Z,33.30
2018-07-28T15:04:37.524Z,33.10
2018-07-28T15:07:03.765Z,32.90
2018-07-28T15:09:20.338Z,32.80
2018-07-28T15:11:28.431Z,32.60
2018-07-28T15:13:35.760Z,32.40
2018-07-28T15:15:44.035Z,32.20
2018-07-28T15:17:49.655Z,32.20
2018-07-28T15:19:54.384Z,32.10
2018-07-28T15:21:59.438Z,32.10
2018-07-28T15:24:04.308Z,32.00
2018-07-28T15:26:10.196Z,32.00
2018-07-28T15:28:15.138Z,31.70
2018-07-28T15:30:19.311Z,31.60
2018-07-28T15:32:24.034Z,31.90
2018-07-28T15:34:29.222Z,32.30
2018-07-28T15:36:35.159Z,32.60
2018-07-28T15:38:41.209Z,32.80
2018-07-28T15:40:45.984Z,33.10
2018-07-28T15:42:51.249Z,33.40
2018-07-28T15:44:56.576Z,33.80
2018-07-28T15:47:01.332Z,34.50
2018-07-28T15:49:07.705Z,35.00
2018-07-28T15:51:12.679Z,35.40
2018-07-28T15:53:19.502Z,35.60
2018-07-28T15:55:29.711Z,35.80
2018-07-28T15:57:38.238Z,36.40
2018-07-28T15:59:44.387Z,37.00
2018-07-28T16:01:54.972Z,37.50
2018-07-28T16:04:00.028Z,37.60
2018-07-28T16:06:05.316Z,37.40
2018-07-28T16:08:10.144Z,37.50
2018-07-28T16:12:31.306Z,38.50
2018-07-28T16:14:36.929Z,38.00
2018-07-28T16:16:41.736Z,37.30
2018-07-28T16:18:48.302Z,37.10
2018-07-28T16:20:59.307Z,37.20
2018-07-28T16:23:08.643Z,37.50
2018-07-28T16:25:15.410Z,37.50
2018-07-28T16:27:21.221Z,37.20
2018-07-28T16:29:26.483Z,37.30
2018-07-28T16:31:31.244Z,37.30
2018-07-28T16:33:38.761Z,37.20
2018-07-28T16:35:44.108Z,37.30
2018-07-28T16:37:48.782Z,37.40
2018-07-28T16:39:54.742Z,37.10
2018-07-28T16:41:59.229Z,36.70
2018-07-28T16:44:04.709Z,36.20
2018-07-28T16:46:10.056Z,35.60
2018-07-28T16:48:15.401Z,35.00
2018-07-28T16:50:20.325Z,34.40
2018-07-28T16:52:24.346Z,34.00
2018-07-28T16:54:32.167Z,33.70
2018-07-28T16:56:41.393Z,33.50
2018-07-28T16:58:50.992Z,33.30
2018-07-28T17:00:56.048Z,33.10
2018-07-28T17:03:00.238Z,33.40
2018-07-28T17:05:05.051Z,33.90
2018-07-28T17:07:10.590Z,34.30
2018-07-28T17:09:15.738Z,34.60
2018-07-28T17:11:23.938Z,34.70
2018-07-28T17:13:34.667Z,34.90
2018-07-28T17:15:42.581Z,35.20
2018-07-28T17:17:48.410Z,35.10
2018-07-28T17:19:53.709Z,34.80
2018-07-28T17:22:00.320Z,34.40
2018-07-28T17:24:07.029Z,33.90
2018-07-28T17:26:12.248Z,33.50
2018-07-28T17:28:18.370Z,33.30
2018-07-28T17:30:35.055Z,33.10
2018-07-28T17:32:46.464Z,33.00
2018-07-28T17:34:54.419Z,32.70
2018-07-28T17:37:04.758Z,32.60
2018-07-28T17:39:11.934Z,32.50
2018-07-28T17:42:22.368Z,32.30
2018-07-28T17:44:27.332Z,32.30
2018-07-28T17:46:32.401Z,32.20
2018-07-28T17:48:37.862Z,32.10
2018-07-28T17:50:50.825Z,32.00
2018-07-28T17:52:57.994Z,31.90
2018-07-28T17:55:04.917Z,31.90
2018-07-28T17:57:12.399Z,31.80
2018-07-28T17:59:17.151Z,31.70
2018-07-28T18:01:22.795Z,31.70
2018-07-28T18:03:28.817Z,31.50
2018-07-28T18:05:33.036Z,31.50
2018-07-28T18:07:38.952Z,31.40
2018-07-28T18:09:43.311Z,31.40
2018-07-28T18:11:48.011Z,31.40
2018-07-28T18:13:53.988Z,31.30
2018-07-28T18:16:00.332Z,31.20
2018-07-28T18:18:04.446Z,31.10
2018-07-28T18:20:10.624Z,31.10
2018-07-28T18:22:17.247Z,30.90
2018-07-28T18:24:21.213Z,30.80
2018-07-28T18:26:25.319Z,30.80
2018-07-28T18:28:31.714Z,30.70
2018-07-28T18:30:36.704Z,30.70
2018-07-28T18:32:42.503Z,30.60
2018-07-28T18:34:48.313Z,30.60
2018-07-28T18:36:52.380Z,30.50
2018-07-28T18:38:56.518Z,30.30
2018-07-28T18:41:02.466Z,30.30
2018-07-28T18:43:09.324Z,30.20
2018-07-28T18:45:15.083Z,30.20
2018-07-28T18:47:22.990Z,30.10
2018-07-28T18:49:28.484Z,29.90
2018-07-28T18:51:38.426Z,29.90
2018-07-28T18:53:44.755Z,29.80
2018-07-28T18:55:51.104Z,29.80
2018-07-28T18:57:55.988Z,29.70
2018-07-28T19:00:01.389Z,29.70
2018-07-28T19:02:06.787Z,29.60
2018-07-28T19:04:10.885Z,29.50
2018-07-28T19:06:15.936Z,29.50
2018-07-28T19:08:21.612Z,29.40
2018-07-28T19:10:29.311Z,29.30
2018-07-28T19:12:40.138Z,29.30
2018-07-28T19:14:46.489Z,29.20
2018-07-28T19:16:53.488Z,29.10
2018-07-28T19:19:07.103Z,29.10
2018-07-28T19:21:11.592Z,29.00
2018-07-28T19:23:21.677Z,28.90
2018-07-28T19:25:26.342Z,28.80
2018-07-28T19:27:30.441Z,28.70
2018-07-28T19:29:39.729Z,28.70
2018-07-28T19:31:45.440Z,28.70
2018-07-28T19:33:50.476Z,28.50
2018-07-28T19:36:04.157Z,28.50
2018-07-28T19:38:09.394Z,28.50
2018-07-28T19:40:16.993Z,28.50
2018-07-28T19:42:30.890Z,28.60
2018-07-28T19:44:39.056Z,28.60
2018-07-28T19:46:43.766Z,28.60
2018-07-28T19:48:51.678Z,28.60
2018-07-28T19:51:07.586Z,28.50
2018-07-28T19:55:17.369Z,28.40
2018-07-28T19:57:22.541Z,28.40
2018-07-28T19:59:27.921Z,28.40
2018-07-28T20:01:34.707Z,28.50
2018-07-28T20:03:38.907Z,28.30
2018-07-28T20:05:43.148Z,28.30
2018-07-28T20:08:06.233Z,28.30
2018-07-28T20:10:10.312Z,28.40
2018-07-28T20:12:20.481Z,28.40
2018-07-28T20:14:25.953Z,28.40
2018-07-28T20:16:36.659Z,28.40
2018-07-28T20:18:44.295Z,28.40
2018-07-28T20:23:29.520Z,28.30
2018-07-28T20:25:34.628Z,28.20
2018-07-28T20:27:43.370Z,28.30
2018-07-28T20:29:48.439Z,28.30
2018-07-28T20:34:00.012Z,28.10
2018-07-28T20:36:07.315Z,28.00
2018-07-28T20:38:12.290Z,28.00
2018-07-28T20:40:18.793Z,28.10
2018-07-28T20:42:24.190Z,28.10
2018-07-28T20:44:31.252Z,28.10
2018-07-28T20:46:39.173Z,28.00
2018-07-28T20:48:44.331Z,28.00
2018-07-28T20:50:49.083Z,27.90
2018-07-28T20:52:54.464Z,27.90
2018-07-28T20:57:12.499Z,27.90
